createdAt,value
2022-10-12T00:01:11.436Z,4.20
2022-10-12T00:03:40.455Z,3.65
2022-10-12T00:06:12.024Z,3.58
2022-10-12T00:08:42.445Z,3.92
2022-10-12T00:11:16.852Z,3.33
2022-10-12T00:13:45.161Z,3.35
2022-10-12T00:16:15.604Z,4.20
2022-10-12T00:18:44.197Z,4.28
2022-10-12T00:21:15.839Z,3.35
2022-10-12T00:23:45.551Z,3.40
2022-10-12T00:26:18.739Z,3.53
2022-10-12T00:28:47.857Z,3.30
2022-10-12T00:31:18.792Z,3.75
2022-10-12T00:33:48.365Z,3.03
2022-10-12T00:36:20.145Z,3.80
2022-10-12T00:38:49.867Z,3.40
2022-10-12T00:41:22.718Z,2.85
2022-10-12T00:43:55.426Z,2.90
2022-10-12T00:46:33.407Z,2.85
2022-10-12T00:49:13.556Z,2.92
2022-10-12T00:51:45.654Z,3.45
2022-10-12T00:54:17.774Z,3.08
2022-10-12T00:59:22.203Z,2.70
2022-10-12T01:01:51.462Z,2.33
2022-10-12T01:04:19.823Z,2.80
2022-10-12T01:06:48.298Z,2.60
2022-10-12T01:09:17.466Z,3.25
2022-10-12T01:11:47.394Z,2.05
2022-10-12T01:14:16.383Z,2.92
2022-10-12T01:16:52.752Z,2.60
2022-10-12T01:19:44.867Z,2.30
2022-10-12T01:22:18.886Z,2.50
2022-10-12T01:24:53.599Z,3.13
2022-10-12T01:27:48.597Z,3.35
2022-10-12T01:30:23.008Z,3.25
2022-10-12T01:33:18.681Z,3.60
2022-10-12T01:35:57.166Z,3.50
2022-10-12T01:38:40.660Z,3.33
2022-10-12T01:41:15.450Z,3.65
2022-10-12T01:43:46.089Z,2.85
2022-10-12T01:46:52.415Z,3.45
2022-10-12T01:49:25.937Z,3.35
2022-10-12T01:52:15.476Z,4.32
2022-10-12T01:55:17.584Z,3.10
2022-10-12T01:58:01.841Z,2.83
2022-10-12T02:00:35.527Z,2.55
2022-10-12T02:03:15.271Z,2.88
2022-10-12T02:05:51.010Z,2.67
2022-10-12T02:08:25.575Z,2.67
2022-10-12T02:11:01.359Z,2.55
2022-10-12T02:13:35.538Z,2.35
2022-10-12T02:16:08.684Z,2.35
2022-10-12T02:18:43.772Z,2.40
2022-10-12T02:21:17.453Z,3.22
2022-10-12T02:23:46.736Z,2.47
2022-10-12T02:26:16.655Z,3.58
2022-10-12T02:28:46.580Z,3.60
2022-10-12T02:31:24.555Z,3.10
2022-10-12T02:34:01.824Z,3.20
2022-10-12T02:36:37.349Z,3.50
2022-10-12T02:39:11.688Z,3.83
2022-10-12T02:41:47.651Z,3.22
2022-10-12T02:44:20.962Z,4.38
2022-10-12T02:46:50.589Z,3.45
2022-10-12T02:49:24.122Z,2.85
2022-10-12T02:51:52.806Z,3.03
2022-10-12T02:54:22.012Z,3.33
2022-10-12T02:56:50.184Z,3.63
2022-10-12T02:59:19.679Z,3.47
2022-10-12T03:01:48.110Z,3.53
2022-10-12T03:04:16.962Z,3.55
2022-10-12T03:06:46.803Z,3.28
2022-10-12T03:09:15.219Z,3.53
2022-10-12T03:11:44.845Z,3.67
2022-10-12T03:14:14.796Z,3.55
2022-10-12T03:16:43.960Z,3.75
2022-10-12T03:19:12.540Z,2.97
2022-10-12T03:21:41.177Z,3.33
2022-10-12T03:24:11.048Z,3.25
2022-10-12T03:26:39.204Z,3.80
2022-10-12T03:29:09.242Z,3.88
2022-10-12T03:31:37.691Z,4.65
2022-10-12T03:34:05.959Z,3.85
2022-10-12T03:36:34.193Z,3.40
2022-10-12T03:39:02.701Z,3.60
2022-10-12T03:41:32.125Z,2.80
2022-10-12T03:44:00.308Z,2.88
2022-10-12T03:46:28.407Z,2.60
2022-10-12T03:48:56.532Z,2.72
2022-10-12T03:51:24.802Z,3.05
2022-10-12T03:53:53.246Z,3.03
2022-10-12T03:56:21.394Z,2.95
2022-10-12T03:58:50.851Z,3.17
2022-10-12T04:01:19.334Z,2.53
2022-10-12T04:03:47.848Z,2.83
2022-10-12T04:06:15.988Z,3.20
2022-10-12T04:08:48.440Z,3.35
2022-10-12T04:11:20.258Z,3.17
2022-10-12T04:13:50.123Z,3.33
2022-10-12T04:16:18.268Z,3.38
2022-10-12T04:18:46.796Z,3.35
2022-10-12T04:21:17.022Z,2.67
2022-10-12T04:23:45.550Z,2.90
2022-10-12T04:26:14.092Z,3.30
2022-10-12T04:28:42.590Z,2.60
2022-10-12T04:31:12.133Z,2.97
2022-10-12T04:33:40.256Z,2.47
2022-10-12T04:36:09.083Z,3.28
2022-10-12T04:38:37.238Z,3.08
2022-10-12T04:41:05.839Z,3.20
2022-10-12T04:43:34.265Z,3.35
2022-10-12T04:46:02.786Z,3.53
2022-10-12T04:48:32.597Z,3.78
2022-10-12T04:51:00.772Z,3.25
2022-10-12T04:53:29.903Z,3.90
2022-10-12T04:55:58.018Z,3.33
2022-10-12T04:58:26.213Z,3.13
2022-10-12T05:00:54.654Z,3.22
2022-10-12T05:03:23.214Z,2.90
2022-10-12T05:05:53.027Z,3.33
2022-10-12T05:08:21.588Z,3.08
2022-10-12T05:10:49.677Z,3.22
2022-10-12T05:13:18.176Z,2.88
2022-10-12T05:15:46.741Z,3.10
2022-10-12T05:18:15.162Z,3.05
2022-10-12T05:20:44.398Z,3.20
2022-10-12T05:23:13.998Z,3.15
2022-10-12T05:25:42.510Z,3.40
2022-10-12T05:28:11.013Z,3.28
2022-10-12T05:30:40.747Z,3.28
2022-10-12T05:33:09.197Z,3.50
2022-10-12T05:35:37.706Z,3.47
2022-10-12T05:38:05.816Z,3.38
2022-10-12T05:40:35.334Z,4.43
2022-10-12T05:43:03.583Z,3.83
2022-10-12T05:45:32.197Z,3.85
2022-10-12T05:48:00.599Z,3.88
2022-10-12T05:50:29.093Z,3.50
2022-10-12T05:52:57.569Z,3.88
2022-10-12T05:55:25.798Z,4.35
2022-10-12T05:57:55.219Z,4.10
2022-10-12T06:00:23.711Z,4.18
2022-10-12T06:02:52.174Z,4.18
2022-10-12T06:05:20.675Z,4.82
2022-10-12T06:07:49.103Z,4.78
2022-10-12T06:10:17.973Z,4.85
2022-10-12T06:12:46.454Z,5.00
2022-10-12T06:15:16.142Z,4.68
2022-10-12T06:17:44.576Z,5.18
2022-10-12T06:20:13.176Z,4.90
2022-10-12T06:22:41.511Z,5.80
2022-10-12T06:25:10.366Z,4.80
2022-10-12T06:27:38.843Z,5.40
2022-10-12T06:30:08.322Z,6.15
2022-10-12T06:32:38.080Z,5.75
2022-10-12T06:35:08.040Z,5.28
2022-10-12T06:37:51.529Z,6.60
2022-10-12T06:40:20.543Z,6.88
2022-10-12T06:42:52.713Z,6.75
2022-10-12T06:45:23.001Z,6.50
2022-10-12T06:47:52.426Z,6.88
2022-10-12T06:50:20.598Z,6.65
2022-10-12T06:52:49.118Z,6.82
2022-10-12T06:55:17.549Z,7.53
2022-10-12T06:57:45.725Z,7.20
2022-10-12T07:00:15.330Z,7.18
2022-10-12T07:02:43.785Z,7.90
2022-10-12T07:05:13.372Z,7.13
2022-10-12T07:07:41.649Z,7.47
2022-10-12T07:10:10.678Z,7.50
2022-10-12T07:12:39.981Z,7.60
2022-10-12T07:15:09.673Z,7.22
2022-10-12T07:17:38.254Z,6.85
2022-10-12T07:20:07.633Z,6.63
2022-10-12T07:22:37.133Z,6.63
2022-10-12T07:25:06.378Z,6.05
2022-10-12T07:27:34.663Z,5.78
2022-10-12T07:30:03.042Z,5.07
2022-10-12T07:32:31.162Z,5.60
2022-10-12T07:34:59.284Z,5.55
2022-10-12T07:37:27.881Z,4.13
2022-10-12T07:39:57.708Z,3.83
2022-10-12T07:42:26.249Z,3.40
2022-10-12T07:44:54.386Z,3.25
2022-10-12T07:47:22.579Z,2.95
2022-10-12T07:49:50.728Z,4.35
2022-10-12T07:52:18.869Z,2.25
2022-10-12T07:54:47.342Z,2.05
2022-10-12T07:57:16.888Z,2.13
2022-10-12T07:59:45.120Z,2.60
2022-10-12T08:02:13.619Z,2.13
2022-10-12T08:04:41.788Z,3.00
2022-10-12T08:07:09.923Z,2.38
2022-10-12T08:09:38.538Z,1.83
2022-10-12T08:12:07.394Z,1.80
2022-10-12T08:14:37.164Z,2.03
2022-10-12T08:17:06.272Z,2.30
2022-10-12T08:19:36.716Z,2.10
2022-10-12T08:22:04.923Z,2.00
2022-10-12T08:24:33.109Z,2.03
2022-10-12T08:27:01.716Z,2.45
2022-10-12T08:29:29.908Z,2.10
2022-10-12T08:32:01.708Z,2.22
2022-10-12T08:34:30.869Z,1.83
2022-10-12T08:36:59.526Z,2.63
2022-10-12T08:39:27.733Z,2.45
2022-10-12T08:42:10.504Z,1.83
2022-10-12T08:45:02.732Z,2.00
2022-10-12T08:50:19.216Z,2.03
2022-10-12T08:52:55.742Z,1.60
2022-10-12T08:55:35.567Z,1.85
2022-10-12T08:58:04.250Z,1.73
2022-10-12T09:00:35.615Z,1.60
2022-10-12T09:03:19.368Z,1.30
2022-10-12T09:05:53.754Z,1.90
2022-10-12T09:08:35.438Z,1.60
2022-10-12T09:11:19.539Z,1.98
2022-10-12T09:13:55.767Z,1.80
2022-10-12T09:16:26.813Z,1.70
2022-10-12T09:18:59.860Z,1.60
2022-10-12T09:21:31.151Z,1.30
2022-10-12T09:24:00.087Z,1.83
2022-10-12T09:26:39.930Z,1.60
2022-10-12T09:29:28.453Z,1.33
2022-10-12T09:32:41.943Z,2.00
2022-10-12T09:35:15.071Z,1.90
2022-10-12T09:37:45.827Z,1.63
2022-10-12T09:40:22.643Z,1.90
2022-10-12T09:42:51.668Z,1.90
2022-10-12T09:45:22.801Z,2.22
2022-10-12T09:48:20.433Z,1.77
2022-10-12T09:50:56.973Z,2.35
2022-10-12T09:53:36.037Z,2.05
2022-10-12T09:56:11.727Z,1.90
2022-10-12T09:58:52.517Z,1.90
2022-10-12T10:01:27.128Z,1.80
2022-10-12T10:04:16.061Z,1.80
2022-10-12T10:06:47.900Z,1.70
2022-10-12T10:12:18.683Z,1.80
2022-10-12T10:14:46.950Z,2.05
2022-10-12T10:17:18.320Z,1.92
2022-10-12T10:19:51.462Z,1.50
2022-10-12T10:22:22.372Z,2.00
2022-10-12T10:24:59.912Z,1.87
2022-10-12T10:27:34.032Z,2.22
2022-10-12T10:30:29.778Z,2.15
2022-10-12T10:33:15.948Z,2.22
2022-10-12T10:36:04.193Z,1.77
2022-10-12T10:38:50.043Z,1.80
2022-10-12T10:41:19.865Z,1.80
2022-10-12T10:43:49.476Z,1.90
2022-10-12T10:46:25.051Z,1.70
2022-10-12T10:48:58.667Z,1.80
2022-10-12T10:51:47.675Z,1.10
2022-10-12T10:54:30.087Z,1.52
2022-10-12T10:57:03.158Z,1.70
2022-10-12T10:59:46.593Z,1.60
2022-10-12T11:02:28.525Z,1.38
2022-10-12T11:05:08.862Z,1.60
2022-10-12T11:07:43.815Z,2.65
2022-10-12T11:10:23.253Z,1.80
2022-10-12T11:13:00.499Z,1.80
2022-10-12T11:15:36.228Z,1.92
2022-10-12T11:18:13.597Z,1.50
2022-10-12T11:20:51.380Z,1.77
2022-10-12T11:23:30.991Z,1.38
2022-10-12T11:26:20.744Z,1.20
2022-10-12T11:28:49.431Z,1.45
2022-10-12T11:31:24.215Z,1.80
2022-10-12T11:33:55.155Z,1.30
2022-10-12T11:36:30.848Z,1.60
2022-10-12T11:39:06.921Z,1.35
2022-10-12T11:42:03.270Z,1.42
2022-10-12T11:44:43.489Z,1.30
2022-10-12T11:47:20.034Z,1.25
2022-10-12T11:49:56.892Z,1.63
2022-10-12T11:52:38.190Z,1.58
2022-10-12T11:55:28.160Z,1.50
2022-10-12T11:58:09.059Z,1.40
2022-10-12T12:00:57.927Z,1.50
2022-10-12T12:03:35.057Z,1.35
2022-10-12T12:06:50.752Z,1.23
2022-10-12T12:09:40.479Z,1.85
2022-10-12T12:12:22.614Z,1.58
2022-10-12T12:15:23.538Z,1.55
2022-10-12T12:18:14.696Z,1.70
2022-10-12T12:21:06.498Z,1.60
2022-10-12T12:23:41.572Z,1.48
2022-10-12T12:26:18.061Z,1.52
2022-10-12T12:28:49.653Z,1.38
2022-10-12T12:34:06.401Z,1.60
2022-10-12T12:36:37.905Z,1.90
2022-10-12T12:39:09.578Z,1.60
2022-10-12T12:41:56.436Z,1.50
2022-10-12T12:44:41.191Z,1.50
2022-10-12T12:47:45.462Z,1.85
2022-10-12T12:50:37.560Z,1.67
2022-10-12T12:53:13.936Z,1.48
2022-10-12T12:56:00.787Z,1.55
2022-10-12T12:59:03.364Z,1.52
2022-10-12T13:01:55.004Z,1.70
2022-10-12T13:04:50.059Z,1.40
2022-10-12T13:07:48.712Z,1.75
2022-10-12T13:10:30.339Z,1.70
2022-10-12T13:13:24.739Z,1.92
2022-10-12T13:16:36.701Z,1.50
2022-10-12T13:19:11.822Z,1.60
2022-10-12T13:21:45.759Z,1.70
2022-10-12T13:24:22.080Z,1.70
2022-10-12T13:26:53.385Z,1.95
2022-10-12T13:29:29.683Z,1.77
2022-10-12T13:32:03.966Z,1.70
2022-10-12T13:34:43.243Z,1.50
2022-10-12T13:37:15.940Z,1.80
2022-10-12T13:39:48.201Z,1.58
2022-10-12T13:42:24.472Z,1.60
2022-10-12T13:44:52.925Z,1.60
2022-10-12T13:47:27.387Z,1.67
2022-10-12T13:49:57.073Z,1.92
2022-10-12T13:52:32.351Z,1.75
2022-10-12T13:55:01.623Z,1.83
2022-10-12T13:57:36.340Z,1.90
2022-10-12T14:00:18.685Z,1.65
2022-10-12T14:02:57.210Z,1.55
2022-10-12T14:05:28.732Z,1.75
2022-10-12T14:08:06.148Z,1.63
2022-10-12T14:10:37.871Z,1.90
2022-10-12T14:13:07.420Z,2.40
2022-10-12T14:15:39.473Z,2.42
2022-10-12T14:18:37.674Z,2.00
2022-10-12T14:21:22.345Z,1.73
2022-10-12T14:23:55.877Z,1.90
2022-10-12T14:26:31.485Z,1.65
2022-10-12T14:29:01.281Z,5.47
2022-10-12T14:31:53.258Z,1.90
2022-10-12T14:37:29.058Z,2.00
2022-10-12T14:40:02.598Z,1.70
2022-10-12T14:42:34.858Z,1.95
2022-10-12T14:45:07.566Z,1.90
2022-10-12T14:47:40.222Z,1.98
2022-10-12T14:50:10.390Z,2.20
2022-10-12T14:52:44.017Z,1.90
2022-10-12T14:55:17.213Z,2.00
2022-10-12T14:57:47.858Z,1.90
2022-10-12T15:00:17.610Z,2.25
2022-10-12T15:02:46.487Z,2.05
2022-10-12T15:05:22.342Z,1.80
2022-10-12T15:07:51.423Z,2.10
2022-10-12T15:10:24.426Z,1.80
2022-10-12T15:12:53.745Z,2.10
2022-10-12T15:15:35.026Z,2.13
2022-10-12T15:18:03.777Z,2.03
2022-10-12T15:20:33.657Z,2.30
2022-10-12T15:23:03.013Z,2.00
2022-10-12T15:25:45.849Z,1.60
2022-10-12T15:28:14.160Z,1.92
2022-10-12T15:31:04.186Z,2.47
2022-10-12T15:33:31.757Z,1.98
2022-10-12T15:36:00.038Z,2.38
2022-10-12T15:38:28.194Z,1.90
2022-10-12T15:40:58.295Z,2.10
2022-10-12T15:43:26.756Z,2.03
2022-10-12T15:45:56.435Z,2.03
2022-10-12T15:48:24.658Z,1.80
2022-10-12T15:50:53.146Z,2.83
2022-10-12T15:53:24.806Z,2.05
2022-10-12T15:55:53.491Z,2.08
2022-10-12T15:58:23.665Z,2.13
2022-10-12T16:00:52.247Z,1.85
2022-10-12T16:03:26.074Z,2.50
2022-10-12T16:05:54.903Z,2.50
2022-10-12T16:08:23.419Z,2.30
2022-10-12T16:10:52.060Z,2.65
2022-10-12T16:13:21.980Z,2.20
2022-10-12T16:15:50.402Z,1.85
2022-10-12T16:18:18.957Z,2.35
2022-10-12T16:20:53.579Z,2.15
2022-10-12T16:23:25.636Z,3.15
2022-10-12T16:25:54.731Z,2.75
2022-10-12T16:28:25.942Z,2.80
2022-10-12T16:30:54.637Z,2.20
2022-10-12T16:33:23.275Z,2.60
2022-10-12T16:35:51.511Z,2.45
2022-10-12T16:38:20.734Z,2.47
2022-10-12T16:40:50.256Z,2.50
2022-10-12T16:43:19.411Z,2.33
2022-10-12T16:45:56.975Z,2.50
2022-10-12T16:48:25.918Z,2.50
2022-10-12T16:50:55.057Z,2.88
2022-10-12T16:53:23.215Z,3.42
2022-10-12T16:55:51.388Z,3.28
2022-10-12T16:58:19.767Z,2.88
2022-10-12T17:00:49.343Z,3.60
2022-10-12T17:03:17.554Z,3.55
2022-10-12T17:05:45.702Z,3.38
2022-10-12T17:08:15.668Z,3.67
2022-10-12T17:10:45.376Z,4.07
2022-10-12T17:13:14.390Z,5.35
2022-10-12T17:15:43.397Z,6.30
2022-10-12T17:18:13.038Z,6.18
2022-10-12T17:20:41.211Z,6.20
2022-10-12T17:23:09.684Z,6.15
2022-10-12T17:25:37.893Z,7.68
2022-10-12T17:28:06.480Z,10.43
2022-10-12T17:30:38.326Z,9.90
2022-10-12T17:33:06.504Z,11.30
2022-10-12T17:35:41.014Z,10.68
2022-10-12T17:38:09.257Z,8.60
2022-10-12T17:40:40.422Z,7.57
2022-10-12T17:43:08.591Z,7.80
2022-10-12T17:45:40.081Z,9.52
2022-10-12T17:48:08.279Z,9.60
2022-10-12T17:50:38.197Z,9.25
2022-10-12T17:53:06.310Z,8.15
2022-10-12T17:55:49.203Z,7.97
2022-10-12T17:58:17.819Z,7.63
2022-10-12T18:00:46.047Z,8.48
2022-10-12T18:03:14.622Z,8.45
2022-10-12T18:05:44.201Z,7.43
2022-10-12T18:08:12.711Z,8.30
2022-10-12T18:10:41.529Z,7.95
2022-10-12T18:13:10.537Z,11.45
2022-10-12T18:15:44.344Z,9.20
2022-10-12T18:18:15.298Z,8.82
2022-10-12T18:20:45.127Z,8.97
2022-10-12T18:23:13.494Z,7.97
2022-10-12T18:25:43.058Z,7.70
2022-10-12T18:28:13.176Z,7.45
2022-10-12T18:30:51.168Z,7.45
2022-10-12T18:33:19.423Z,7.50
2022-10-12T18:35:49.121Z,8.68
2022-10-12T18:38:17.327Z,8.00
2022-10-12T18:40:47.478Z,7.60
2022-10-12T18:43:15.723Z,7.53
2022-10-12T18:45:44.508Z,7.50
2022-10-12T18:48:13.586Z,7.72
2022-10-12T18:50:41.900Z,7.55
2022-10-12T18:53:11.371Z,7.03
2022-10-12T18:55:40.015Z,8.05
2022-10-12T18:58:08.562Z,6.90
2022-10-12T19:00:36.761Z,7.75
2022-10-12T19:03:05.186Z,7.45
2022-10-12T19:05:33.721Z,7.75
2022-10-12T19:08:01.831Z,7.85
2022-10-12T19:10:31.418Z,8.60
2022-10-12T19:12:59.903Z,8.98
2022-10-12T19:15:28.580Z,9.80
2022-10-12T19:17:56.731Z,10.07
2022-10-12T19:20:24.973Z,12.25
2022-10-12T19:22:53.453Z,11.23
2022-10-12T19:25:22.048Z,11.32
2022-10-12T19:27:51.552Z,11.25
2022-10-12T19:30:19.735Z,10.88
2022-10-12T19:32:48.735Z,10.60
2022-10-12T19:35:16.989Z,9.18
2022-10-12T19:37:45.500Z,10.05
2022-10-12T19:40:14.762Z,12.90
2022-10-12T19:42:42.916Z,20.52
2022-10-12T19:45:12.742Z,19.35
2022-10-12T19:47:40.863Z,18.48
2022-10-12T19:50:09.742Z,19.85
2022-10-12T19:52:37.938Z,16.33
2022-10-12T19:55:07.648Z,17.30
2022-10-12T19:57:38.755Z,18.35
2022-10-12T20:00:09.036Z,11.57
2022-10-12T20:02:42.928Z,11.57
2022-10-12T20:05:11.447Z,10.20
2022-10-12T20:07:40.145Z,12.77
2022-10-12T20:10:09.388Z,13.60
2022-10-12T20:12:37.871Z,13.50
2022-10-12T20:15:07.923Z,13.13
2022-10-12T20:17:36.978Z,11.90
2022-10-12T20:20:07.848Z,10.25
2022-10-12T20:22:36.177Z,11.35
2022-10-12T20:25:09.400Z,11.05
2022-10-12T20:27:37.975Z,9.52
2022-10-12T20:30:07.863Z,9.15
2022-10-12T20:32:36.295Z,9.40
2022-10-12T20:35:07.270Z,8.73
2022-10-12T20:37:36.246Z,8.48
2022-10-12T20:40:05.346Z,8.35
2022-10-12T20:42:33.519Z,8.07
2022-10-12T20:45:01.687Z,9.63
2022-10-12T20:47:29.834Z,8.38
2022-10-12T20:49:58.029Z,7.97
2022-10-12T20:52:27.882Z,7.70
2022-10-12T20:54:56.226Z,7.60
2022-10-12T20:57:24.637Z,8.38
2022-10-12T20:59:52.850Z,7.65
2022-10-12T21:02:21.550Z,8.30
2022-10-12T21:04:51.144Z,8.07
2022-10-12T21:07:20.490Z,7.00
2022-10-12T21:09:52.063Z,7.13
2022-10-12T21:12:20.751Z,7.47
2022-10-12T21:14:49.478Z,8.00
2022-10-12T21:17:18.015Z,7.50
2022-10-12T21:19:46.151Z,7.88
2022-10-12T21:22:14.314Z,7.05
2022-10-12T21:24:42.823Z,7.85
2022-10-12T21:27:12.354Z,6.80
2022-10-12T21:29:40.448Z,7.50
2022-10-12T21:32:08.607Z,7.75
2022-10-12T21:34:36.742Z,8.05
2022-10-12T21:37:04.854Z,8.05
2022-10-12T21:39:32.958Z,9.18
2022-10-12T21:42:01.067Z,7.72
2022-10-12T21:44:30.689Z,7.10
2022-10-12T21:46:58.853Z,7.63
2022-10-12T21:49:26.970Z,7.45
2022-10-12T21:51:55.108Z,7.10
2022-10-12T21:54:23.564Z,6.80
2022-10-12T21:56:51.767Z,7.35
2022-10-12T21:59:19.864Z,7.63
2022-10-12T22:01:49.466Z,7.53
2022-10-12T22:04:17.732Z,7.15
2022-10-12T22:06:45.888Z,7.53
2022-10-12T22:09:19.121Z,8.45
2022-10-12T22:11:47.956Z,8.55
2022-10-12T22:14:19.119Z,8.25
2022-10-12T22:16:49.168Z,8.13
2022-10-12T22:19:19.642Z,8.45
2022-10-12T22:21:49.199Z,8.55
2022-10-12T22:24:17.779Z,8.45
2022-10-12T22:26:46.200Z,7.05
2022-10-12T22:29:14.749Z,9.07
2022-10-12T22:31:44.389Z,9.13
2022-10-12T22:34:14.483Z,9.07
2022-10-12T22:36:44.051Z,8.27
2022-10-12T22:39:12.336Z,8.77
2022-10-12T22:41:42.241Z,8.05
2022-10-12T22:44:10.784Z,9.32
2022-10-12T22:46:38.921Z,8.20
2022-10-12T22:49:07.061Z,8.82
2022-10-12T22:51:39.320Z,8.55
2022-10-12T22:54:08.677Z,8.52
2022-10-12T22:56:42.616Z,7.53
2022-10-12T22:59:16.003Z,7.35
2022-10-12T23:01:44.831Z,8.63
2022-10-12T23:04:13.210Z,7.30
2022-10-12T23:06:43.094Z,8.50
2022-10-12T23:09:11.265Z,8.07
2022-10-12T23:11:39.505Z,8.10
2022-10-12T23:14:08.081Z,8.68
2022-10-12T23:16:36.573Z,8.68
2022-10-12T23:19:06.717Z,8.40
2022-10-12T23:21:36.567Z,9.40
2022-10-12T23:24:07.223Z,8.15
2022-10-12T23:26:36.034Z,8.55
2022-10-12T23:29:04.661Z,8.40
2022-10-12T23:31:35.487Z,8.18
2022-10-12T23:34:06.720Z,9.00
2022-10-12T23:36:35.449Z,8.63
2022-10-12T23:39:06.268Z,8.50
2022-10-12T23:41:34.832Z,8.13
2022-10-12T23:44:03.149Z,8.70
2022-10-12T23:46:31.741Z,8.93
2022-10-12T23:49:00.184Z,7.90
2022-10-12T23:51:28.426Z,7.75
2022-10-12T23:53:56.885Z,8.05
2022-10-12T23:56:26.583Z,7.20
2022-10-12T23:58:55.299Z,8.35
